sensor_id;sensor_type;location;lat;lon;timestamp;noise_LAeq;noise_LA_min;noise_LA_max;noise_LA01;noise_LA95
42701;Laerm;28316;49.504;8.526;2022-12-18T00:01:20;39.26;37.12;40.80;;
42701;Laerm;28316;49.504;8.526;2022-12-18T00:03:46;39.28;37.32;41.06;;
42701;Laerm;28316;49.504;8.526;2022-12-18T00:06:13;39.30;37.52;40.98;;
42701;Laerm;28316;49.504;8.526;2022-12-18T00:08:40;39.33;37.32;41.06;;
42701;Laerm;28316;49.504;8.526;2022-12-18T00:11:10;39.36;37.32;40.98;;
42701;Laerm;28316;49.504;8.526;2022-12-18T00:13:37;39.40;37.52;41.06;;
42701;Laerm;28316;49.504;8.526;2022-12-18T00:16:09;39.40;37.52;40.98;;
42701;Laerm;28316;49.504;8.526;2022-12-18T00:18:35;39.42;36.91;40.98;;
42701;Laerm;28316;49.504;8.526;2022-12-18T00:21:05;39.44;37.52;41.14;;
42701;Laerm;28316;49.504;8.526;2022-12-18T00:23:33;39.44;37.52;41.22;;
42701;Laerm;28316;49.504;8.526;2022-12-18T00:26:01;39.44;37.52;41.06;;
42701;Laerm;28316;49.504;8.526;2022-12-18T00:28:27;39.46;37.12;41.22;;
42701;Laerm;28316;49.504;8.526;2022-12-18T00:31:09;39.48;37.52;41.14;;
42701;Laerm;28316;49.504;8.526;2022-12-18T00:33:36;39.48;37.52;41.06;;
42701;Laerm;28316;49.504;8.526;2022-12-18T00:36:10;39.48;37.32;41.14;;
42701;Laerm;28316;49.504;8.526;2022-12-18T00:38:38;39.47;37.52;41.38;;
42701;Laerm;28316;49.504;8.526;2022-12-18T00:41:15;39.50;37.70;41.22;;
42701;Laerm;28316;49.504;8.526;2022-12-18T00:44:01;39.50;37.70;41.30;;
42701;Laerm;28316;49.504;8.526;2022-12-18T00:46:26;39.49;37.52;41.14;;
42701;Laerm;28316;49.504;8.526;2022-12-18T00:48:52;39.48;37.70;41.30;;
42701;Laerm;28316;49.504;8.526;2022-12-18T00:51:18;39.47;37.52;40.98;;
42701;Laerm;28316;49.504;8.526;2022-12-18T00:53:43;39.48;37.52;41.22;;
42701;Laerm;28316;49.504;8.526;2022-12-18T00:56:09;39.49;37.70;41.30;;
42701;Laerm;28316;49.504;8.526;2022-12-18T00:58:38;39.48;37.70;41.06;;
42701;Laerm;28316;49.504;8.526;2022-12-18T01:01:05;39.48;37.70;41.22;;
42701;Laerm;28316;49.504;8.526;2022-12-18T01:03:30;39.50;37.32;41.38;;
42701;Laerm;28316;49.504;8.526;2022-12-18T01:05:56;39.50;37.12;41.06;;
42701;Laerm;28316;49.504;8.526;2022-12-18T01:08:22;39.52;37.52;41.22;;
42701;Laerm;28316;49.504;8.526;2022-12-18T01:10:48;39.53;37.12;41.30;;
42701;Laerm;28316;49.504;8.526;2022-12-18T01:13:14;39.53;37.32;41.30;;
42701;Laerm;28316;49.504;8.526;2022-12-18T01:15:40;39.54;37.52;41.06;;
42701;Laerm;28316;49.504;8.526;2022-12-18T01:18:06;39.54;37.52;41.14;;
42701;Laerm;28316;49.504;8.526;2022-12-18T01:20:32;39.56;37.52;41.30;;
42701;Laerm;28316;49.504;8.526;2022-12-18T01:22:58;39.55;37.52;40.98;;
42701;Laerm;28316;49.504;8.526;2022-12-18T01:25:24;39.56;37.52;41.30;;
42701;Laerm;28316;49.504;8.526;2022-12-18T01:27:50;39.56;37.52;41.30;;
42701;Laerm;28316;49.504;8.526;2022-12-18T01:30:16;39.57;37.52;41.22;;
42701;Laerm;28316;49.504;8.526;2022-12-18T01:32:42;39.57;37.70;41.14;;
42701;Laerm;28316;49.504;8.526;2022-12-18T01:35:08;39.58;37.70;41.38;;
42701;Laerm;28316;49.504;8.526;2022-12-18T01:37:34;39.58;37.52;41.06;;
42701;Laerm;28316;49.504;8.526;2022-12-18T01:39:59;39.58;37.32;41.46;;
42701;Laerm;28316;49.504;8.526;2022-12-18T01:42:25;39.58;37.52;41.14;;
42701;Laerm;28316;49.504;8.526;2022-12-18T01:48:01;39.57;37.32;41.30;;
42701;Laerm;28316;49.504;8.526;2022-12-18T01:50:41;39.58;37.52;41.30;;
42701;Laerm;28316;49.504;8.526;2022-12-18T01:55:55;39.56;37.70;41.14;;
42701;Laerm;28316;49.504;8.526;2022-12-18T02:01:07;39.58;37.52;41.06;;
42701;Laerm;28316;49.504;8.526;2022-12-18T02:03:33;39.56;37.70;41.14;;
42701;Laerm;28316;49.504;8.526;2022-12-18T02:11:59;39.58;37.70;41.30;;
42701;Laerm;28316;49.504;8.526;2022-12-18T02:18:01;39.60;37.12;41.22;;
42701;Laerm;28316;49.504;8.526;2022-12-18T02:20:36;39.60;37.70;41.30;;
42701;Laerm;28316;49.504;8.526;2022-12-18T02:23:15;39.58;37.87;41.30;;
42701;Laerm;28316;49.504;8.526;2022-12-18T02:26:07;39.59;37.52;41.22;;
42701;Laerm;28316;49.504;8.526;2022-12-18T02:28:48;39.59;37.70;41.19;;
42701;Laerm;28316;49.504;8.526;2022-12-18T02:31:20;39.60;38.02;41.46;;
42701;Laerm;28316;49.504;8.526;2022-12-18T02:33:48;39.61;37.52;41.30;;
42701;Laerm;28316;49.504;8.526;2022-12-18T02:36:16;39.61;37.70;41.46;;
42701;Laerm;28316;49.504;8.526;2022-12-18T02:38:44;39.62;37.52;40.98;;
42701;Laerm;28316;49.504;8.526;2022-12-18T02:41:13;39.62;37.70;41.22;;
42701;Laerm;28316;49.504;8.526;2022-12-18T02:43:46;39.61;37.88;41.30;;
42701;Laerm;28316;49.504;8.526;2022-12-18T02:46:35;39.62;37.88;41.38;;
42701;Laerm;28316;49.504;8.526;2022-12-18T02:54:57;39.64;37.70;41.30;;
42701;Laerm;28316;49.504;8.526;2022-12-18T02:57:39;39.65;37.70;41.22;;
42701;Laerm;28316;49.504;8.526;2022-12-18T03:00:13;39.65;37.70;41.14;;
42701;Laerm;28316;49.504;8.526;2022-12-18T03:05:19;39.65;37.52;41.38;;
42701;Laerm;28316;49.504;8.526;2022-12-18T03:07:56;39.67;37.52;41.06;;
42701;Laerm;28316;49.504;8.526;2022-12-18T03:10:29;39.67;37.70;41.30;;
42701;Laerm;28316;49.504;8.526;2022-12-18T03:16:03;39.71;37.88;41.26;;
42701;Laerm;28316;49.504;8.526;2022-12-18T03:19:01;39.75;37.52;41.38;;
42701;Laerm;28316;49.504;8.526;2022-12-18T03:21:43;39.77;37.88;41.30;;
42701;Laerm;28316;49.504;8.526;2022-12-18T03:24:11;39.79;38.05;41.38;;
42701;Laerm;28316;49.504;8.526;2022-12-18T03:26:42;39.78;37.70;41.46;;
42701;Laerm;28316;49.504;8.526;2022-12-18T03:29:17;39.78;37.32;41.22;;
42701;Laerm;28316;49.504;8.526;2022-12-18T03:31:54;39.76;38.05;41.68;;
42701;Laerm;28316;49.504;8.526;2022-12-18T03:34:26;39.76;38.21;41.30;;
42701;Laerm;28316;49.504;8.526;2022-12-18T03:36:55;39.76;37.88;41.30;;
42701;Laerm;28316;49.504;8.526;2022-12-18T03:39:21;39.77;37.88;41.30;;
42701;Laerm;28316;49.504;8.526;2022-12-18T03:42:17;39.79;38.05;41.53;;
42701;Laerm;28316;49.504;8.526;2022-12-18T03:45:07;39.79;37.88;41.53;;
42701;Laerm;28316;49.504;8.526;2022-12-18T03:56:15;39.80;37.70;41.61;;
42701;Laerm;28316;49.504;8.526;2022-12-18T03:58:43;39.80;38.21;41.38;;
42701;Laerm;28316;49.504;8.526;2022-12-18T04:01:13;39.83;37.12;41.38;;
42701;Laerm;28316;49.504;8.526;2022-12-18T04:03:39;39.82;37.32;41.38;;
42701;Laerm;28316;49.504;8.526;2022-12-18T04:06:07;39.84;38.05;41.38;;
42701;Laerm;28316;49.504;8.526;2022-12-18T04:08:34;39.84;38.05;41.61;;
42701;Laerm;28316;49.504;8.526;2022-12-18T04:11:01;39.84;37.88;41.53;;
42701;Laerm;28316;49.504;8.526;2022-12-18T04:13:32;39.85;38.05;41.30;;
42701;Laerm;28316;49.504;8.526;2022-12-18T04:15:58;39.84;38.05;41.38;;
42701;Laerm;28316;49.504;8.526;2022-12-18T04:18:24;39.83;38.05;41.38;;
42701;Laerm;28316;49.504;8.526;2022-12-18T04:20:49;39.82;38.05;41.61;;
42701;Laerm;28316;49.504;8.526;2022-12-18T04:23:15;39.81;38.05;41.22;;
42701;Laerm;28316;49.504;8.526;2022-12-18T04:25:41;39.81;38.05;41.38;;
42701;Laerm;28316;49.504;8.526;2022-12-18T04:28:06;39.78;38.05;41.30;;
42701;Laerm;28316;49.504;8.526;2022-12-18T04:30:32;39.77;38.05;41.22;;
42701;Laerm;28316;49.504;8.526;2022-12-18T04:32:58;39.76;37.88;41.30;;
42701;Laerm;28316;49.504;8.526;2022-12-18T04:35:23;39.78;38.05;41.30;;
42701;Laerm;28316;49.504;8.526;2022-12-18T04:37:49;39.78;38.05;41.38;;
42701;Laerm;28316;49.504;8.526;2022-12-18T04:40:15;39.78;37.88;41.46;;
42701;Laerm;28316;49.504;8.526;2022-12-18T04:42:41;39.77;37.70;41.30;;
42701;Laerm;28316;49.504;8.526;2022-12-18T04:45:07;39.76;37.70;41.46;;
42701;Laerm;28316;49.504;8.526;2022-12-18T04:47:33;39.76;38.05;41.22;;
42701;Laerm;28316;49.504;8.526;2022-12-18T04:49:59;39.75;37.88;41.22;;
42701;Laerm;28316;49.504;8.526;2022-12-18T04:52:24;39.75;38.05;41.14;;
42701;Laerm;28316;49.504;8.526;2022-12-18T04:54:50;39.75;38.05;41.19;;
42701;Laerm;28316;49.504;8.526;2022-12-18T04:57:16;39.75;37.70;41.38;;
42701;Laerm;28316;49.504;8.526;2022-12-18T04:59:44;39.75;37.88;41.38;;
42701;Laerm;28316;49.504;8.526;2022-12-18T05:02:10;39.75;38.21;41.22;;
42701;Laerm;28316;49.504;8.526;2022-12-18T05:04:35;39.76;38.21;41.38;;
42701;Laerm;28316;49.504;8.526;2022-12-18T05:07:01;39.76;37.88;41.22;;
42701;Laerm;28316;49.504;8.526;2022-12-18T05:09:27;39.74;37.88;41.22;;
42701;Laerm;28316;49.504;8.526;2022-12-18T05:11:52;39.73;38.02;41.14;;
42701;Laerm;28316;49.504;8.526;2022-12-18T05:14:19;39.74;38.05;41.30;;
42701;Laerm;28316;49.504;8.526;2022-12-18T05:16:45;39.74;37.88;41.30;;
42701;Laerm;28316;49.504;8.526;2022-12-18T05:19:11;39.71;38.05;41.38;;
42701;Laerm;28316;49.504;8.526;2022-12-18T05:21:36;39.70;37.52;41.46;;
42701;Laerm;28316;49.504;8.526;2022-12-18T05:24:02;39.71;37.88;41.38;;
42701;Laerm;28316;49.504;8.526;2022-12-18T05:26:28;39.69;37.52;41.38;;
42701;Laerm;28316;49.504;8.526;2022-12-18T05:28:57;39.68;37.52;41.46;;
42701;Laerm;28316;49.504;8.526;2022-12-18T05:31:22;39.67;37.52;41.38;;
42701;Laerm;28316;49.504;8.526;2022-12-18T05:33:51;39.67;37.88;41.30;;
42701;Laerm;28316;49.504;8.526;2022-12-18T05:36:17;39.65;37.52;41.22;;
42701;Laerm;28316;49.504;8.526;2022-12-18T05:38:42;39.64;37.70;41.46;;
42701;Laerm;28316;49.504;8.526;2022-12-18T05:41:09;39.64;37.88;41.38;;
42701;Laerm;28316;49.504;8.526;2022-12-18T05:43:37;39.65;37.32;41.14;;
42701;Laerm;28316;49.504;8.526;2022-12-18T05:46:11;39.65;37.70;41.14;;
42701;Laerm;28316;49.504;8.526;2022-12-18T05:48:37;39.65;37.88;41.22;;
42701;Laerm;28316;49.504;8.526;2022-12-18T05:51:09;39.65;37.52;41.46;;
42701;Laerm;28316;49.504;8.526;2022-12-18T05:53:35;39.65;37.88;41.38;;
42701;Laerm;28316;49.504;8.526;2022-12-18T05:56:05;39.67;37.52;41.14;;
42701;Laerm;28316;49.504;8.526;2022-12-18T05:58:32;39.68;37.52;41.14;;
42701;Laerm;28316;49.504;8.526;2022-12-18T06:01:06;39.68;37.32;41.14;;
42701;Laerm;28316;49.504;8.526;2022-12-18T06:03:32;39.69;37.88;41.46;;
42701;Laerm;28316;49.504;8.526;2022-12-18T06:05:58;39.71;37.70;41.26;;
42701;Laerm;28316;49.504;8.526;2022-12-18T06:08:23;39.71;37.52;41.22;;
42701;Laerm;28316;49.504;8.526;2022-12-18T06:10:51;39.70;37.87;41.14;;
42701;Laerm;28316;49.504;8.526;2022-12-18T06:13:29;39.69;38.05;41.38;;
42701;Laerm;28316;49.504;8.526;2022-12-18T06:15:55;39.67;37.70;41.22;;
42701;Laerm;28316;49.504;8.526;2022-12-18T06:18:20;39.68;37.88;41.22;;
42701;Laerm;28316;49.504;8.526;2022-12-18T06:20:57;39.66;37.70;41.53;;
42701;Laerm;28316;49.504;8.526;2022-12-18T06:23:23;39.66;37.52;41.41;;
42701;Laerm;28316;49.504;8.526;2022-12-18T06:25:49;39.66;37.52;41.22;;
42701;Laerm;28316;49.504;8.526;2022-12-18T06:28:15;39.65;37.70;41.30;;
42701;Laerm;28316;49.504;8.526;2022-12-18T06:30:44;39.66;37.70;41.38;;
42701;Laerm;28316;49.504;8.526;2022-12-18T06:33:10;39.65;37.32;41.22;;
42701;Laerm;28316;49.504;8.526;2022-12-18T06:35:35;39.65;37.52;41.38;;
42701;Laerm;28316;49.504;8.526;2022-12-18T06:38:02;39.66;37.88;41.30;;
42701;Laerm;28316;49.504;8.526;2022-12-18T06:40:28;39.64;37.88;41.53;;
42701;Laerm;28316;49.504;8.526;2022-12-18T06:42:54;39.62;37.70;41.22;;
42701;Laerm;28316;49.504;8.526;2022-12-18T06:45:20;39.62;37.70;41.22;;
42701;Laerm;28316;49.504;8.526;2022-12-18T06:47:45;39.60;37.70;41.53;;
42701;Laerm;28316;49.504;8.526;2022-12-18T06:50:12;39.60;37.70;41.53;;
42701;Laerm;28316;49.504;8.526;2022-12-18T06:52:39;39.59;37.52;41.14;;
42701;Laerm;28316;49.504;8.526;2022-12-18T06:55:10;39.58;37.52;41.14;;
42701;Laerm;28316;49.504;8.526;2022-12-18T06:57:36;39.60;37.70;41.22;;
42701;Laerm;28316;49.504;8.526;2022-12-18T07:00:05;39.61;37.88;41.30;;
42701;Laerm;28316;49.504;8.526;2022-12-18T07:02:31;39.59;37.52;41.22;;
42701;Laerm;28316;49.504;8.526;2022-12-18T07:04:56;39.60;37.70;41.30;;
42701;Laerm;28316;49.504;8.526;2022-12-18T07:07:22;39.60;37.52;41.38;;
42701;Laerm;28316;49.504;8.526;2022-12-18T07:09:50;39.61;37.53;41.14;;
42701;Laerm;28316;49.504;8.526;2022-12-18T07:12:16;39.60;37.88;41.30;;
42701;Laerm;28316;49.504;8.526;2022-12-18T07:14:42;39.61;37.52;41.30;;
42701;Laerm;28316;49.504;8.526;2022-12-18T07:17:07;39.63;37.70;41.22;;
42701;Laerm;28316;49.504;8.526;2022-12-18T07:19:33;39.64;37.70;41.22;;
42701;Laerm;28316;49.504;8.526;2022-12-18T07:22:00;39.67;37.88;41.06;;
42701;Laerm;28316;49.504;8.526;2022-12-18T07:24:26;39.68;37.52;41.22;;
42701;Laerm;28316;49.504;8.526;2022-12-18T07:26:51;39.71;37.88;41.22;;
42701;Laerm;28316;49.504;8.526;2022-12-18T07:29:17;39.74;37.88;41.53;;
42701;Laerm;28316;49.504;8.526;2022-12-18T07:31:43;39.74;37.70;41.14;;
42701;Laerm;28316;49.504;8.526;2022-12-18T07:34:13;39.76;37.52;41.53;;
42701;Laerm;28316;49.504;8.526;2022-12-18T07:36:40;39.76;37.70;41.22;;
42701;Laerm;28316;49.504;8.526;2022-12-18T07:39:06;39.73;37.88;41.46;;
42701;Laerm;28316;49.504;8.526;2022-12-18T07:41:31;39.71;37.70;41.38;;
42701;Laerm;28316;49.504;8.526;2022-12-18T07:43:57;39.68;37.70;41.38;;
42701;Laerm;28316;49.504;8.526;2022-12-18T07:46:23;39.68;37.88;41.22;;
42701;Laerm;28316;49.504;8.526;2022-12-18T07:48:48;39.71;37.12;41.30;;
42701;Laerm;28316;49.504;8.526;2022-12-18T07:51:14;39.70;37.88;41.46;;
42701;Laerm;28316;49.504;8.526;2022-12-18T07:53:40;39.72;38.02;41.38;;
42701;Laerm;28316;49.504;8.526;2022-12-18T07:56:09;39.71;37.70;41.30;;
42701;Laerm;28316;49.504;8.526;2022-12-18T07:58:36;39.71;37.52;41.30;;
42701;Laerm;28316;49.504;8.526;2022-12-18T08:01:07;39.71;37.88;41.14;;
42701;Laerm;28316;49.504;8.526;2022-12-18T08:03:34;39.69;37.88;41.30;;
42701;Laerm;28316;49.504;8.526;2022-12-18T08:06:04;39.67;37.88;41.41;;
42701;Laerm;28316;49.504;8.526;2022-12-18T08:08:31;39.65;37.88;41.14;;
42701;Laerm;28316;49.504;8.526;2022-12-18T08:10:57;39.62;37.32;41.22;;
42701;Laerm;28316;49.504;8.526;2022-12-18T08:13:24;39.59;37.70;41.22;;
42701;Laerm;28316;49.504;8.526;2022-12-18T08:16:05;39.57;37.52;41.46;;
42701;Laerm;28316;49.504;8.526;2022-12-18T08:18:36;39.61;37.52;41.06;;
42701;Laerm;28316;49.504;8.526;2022-12-18T08:21:16;39.60;37.52;41.14;;
42701;Laerm;28316;49.504;8.526;2022-12-18T08:23:43;39.62;37.52;41.22;;
42701;Laerm;28316;49.504;8.526;2022-12-18T08:26:11;39.63;37.70;41.22;;
42701;Laerm;28316;49.504;8.526;2022-12-18T08:28:37;39.62;37.70;41.38;;
42701;Laerm;28316;49.504;8.526;2022-12-18T08:31:03;39.63;37.52;41.30;;
42701;Laerm;28316;49.504;8.526;2022-12-18T08:33:29;39.60;37.52;41.22;;
42701;Laerm;28316;49.504;8.526;2022-12-18T08:35:55;39.60;37.12;41.22;;
42701;Laerm;28316;49.504;8.526;2022-12-18T08:38:20;39.59;37.52;41.46;;
42701;Laerm;28316;49.504;8.526;2022-12-18T08:40:46;39.58;37.52;41.46;;
42701;Laerm;28316;49.504;8.526;2022-12-18T08:43:12;39.57;37.52;41.38;;
42701;Laerm;28316;49.504;8.526;2022-12-18T08:45:56;39.57;37.70;41.38;;
42701;Laerm;28316;49.504;8.526;2022-12-18T08:48:22;39.57;37.70;41.22;;
42701;Laerm;28316;49.504;8.526;2022-12-18T08:50:58;39.57;37.52;41.46;;
42701;Laerm;28316;49.504;8.526;2022-12-18T08:53:25;39.56;37.52;41.30;;
42701;Laerm;28316;49.504;8.526;2022-12-18T08:55:51;39.54;37.32;41.30;;
42701;Laerm;28316;49.504;8.526;2022-12-18T08:58:17;39.50;37.52;41.06;;
42701;Laerm;28316;49.504;8.526;2022-12-18T09:00:43;39.51;37.70;41.22;;
42701;Laerm;28316;49.504;8.526;2022-12-18T09:03:18;39.47;37.52;40.89;;
42701;Laerm;28316;49.504;8.526;2022-12-18T09:05:46;39.45;37.52;41.06;;
42701;Laerm;28316;49.504;8.526;2022-12-18T09:08:12;39.43;37.52;41.14;;
42701;Laerm;28316;49.504;8.526;2022-12-18T09:10:43;39.40;37.52;41.14;;
42701;Laerm;28316;49.504;8.526;2022-12-18T09:13:11;39.38;36.91;41.06;;
42701;Laerm;28316;49.504;8.526;2022-12-18T09:15:49;39.34;36.91;41.06;;
42701;Laerm;28316;49.504;8.526;2022-12-18T09:18:17;39.32;37.32;40.98;;
42701;Laerm;28316;49.504;8.526;2022-12-18T09:20:44;39.33;37.32;41.06;;
42701;Laerm;28316;49.504;8.526;2022-12-18T09:23:10;39.34;37.52;40.89;;
42701;Laerm;28316;49.504;8.526;2022-12-18T09:25:37;39.34;37.32;41.06;;
42701;Laerm;28316;49.504;8.526;2022-12-18T09:28:15;39.37;37.52;41.06;;
42701;Laerm;28316;49.504;8.526;2022-12-18T09:30:48;39.38;37.32;41.06;;
42701;Laerm;28316;49.504;8.526;2022-12-18T09:33:15;39.47;37.52;41.06;;
42701;Laerm;28316;49.504;8.526;2022-12-18T09:35:43;39.74;37.70;41.22;;
42701;Laerm;28316;49.504;8.526;2022-12-18T09:38:19;40.06;38.37;41.46;;
42701;Laerm;28316;49.504;8.526;2022-12-18T09:40:52;40.49;38.67;41.96;;
42701;Laerm;28316;49.504;8.526;2022-12-18T09:43:28;40.96;39.08;42.47;;
42701;Laerm;28316;49.504;8.526;2022-12-18T09:46:01;41.80;40.62;42.88;;
42701;Laerm;28316;49.504;8.526;2022-12-18T09:48:34;42.07;40.71;43.19;;
42701;Laerm;28316;49.504;8.526;2022-12-18T09:51:11;42.20;40.71;43.34;;
42701;Laerm;28316;49.504;8.526;2022-12-18T09:53:41;42.31;41.14;43.29;;
42701;Laerm;28316;49.504;8.526;2022-12-18T09:56:17;42.41;41.22;43.29;;
42701;Laerm;28316;49.504;8.526;2022-12-18T09:59:00;42.44;41.22;43.49;;
42701;Laerm;28316;49.504;8.526;2022-12-18T10:01:28;42.51;41.38;43.63;;
42701;Laerm;28316;49.504;8.526;2022-12-18T10:03:55;42.55;41.38;43.54;;
42701;Laerm;28316;49.504;8.526;2022-12-18T10:06:42;42.55;40.80;43.86;;
42701;Laerm;28316;49.504;8.526;2022-12-18T10:09:38;42.53;41.14;43.68;;
42701;Laerm;28316;49.504;8.526;2022-12-18T10:18:13;42.30;40.80;43.54;;
42701;Laerm;28316;49.504;8.526;2022-12-18T10:20:46;42.22;40.89;43.29;;
42701;Laerm;28316;49.504;8.526;2022-12-18T10:26:09;42.10;40.71;43.39;;
42701;Laerm;28316;49.504;8.526;2022-12-18T10:28:40;42.04;40.33;43.58;;
42701;Laerm;28316;49.504;8.526;2022-12-18T10:31:14;42.03;40.71;43.34;;
42701;Laerm;28316;49.504;8.526;2022-12-18T10:33:42;42.01;40.53;46.45;;
42701;Laerm;28316;49.504;8.526;2022-12-18T10:36:08;41.96;40.43;43.49;;
42701;Laerm;28316;49.504;8.526;2022-12-18T10:38:34;41.96;40.53;43.04;;
42701;Laerm;28316;49.504;8.526;2022-12-18T10:41:27;41.93;40.43;43.24;;
42701;Laerm;28316;49.504;8.526;2022-12-18T10:44:26;41.93;40.13;43.14;;
42701;Laerm;28316;49.504;8.526;2022-12-18T10:46:55;41.93;40.45;43.29;;
42701;Laerm;28316;49.504;8.526;2022-12-18T10:49:31;41.91;40.03;43.19;;
42701;Laerm;28316;49.504;8.526;2022-12-18T10:52:25;41.91;40.03;43.14;;
42701;Laerm;28316;49.504;8.526;2022-12-18T10:55:03;41.91;40.23;43.09;;
42701;Laerm;28316;49.504;8.526;2022-12-18T10:57:38;41.89;40.23;43.24;;
42701;Laerm;28316;49.504;8.526;2022-12-18T11:00:28;41.89;40.45;43.28;;
42701;Laerm;28316;49.504;8.526;2022-12-18T11:02:56;41.87;40.33;43.14;;
42701;Laerm;28316;49.504;8.526;2022-12-18T11:05:33;41.85;40.23;43.19;;
42701;Laerm;28316;49.504;8.526;2022-12-18T11:08:02;41.85;40.13;43.04;;
42701;Laerm;28316;49.504;8.526;2022-12-18T11:10:37;41.80;40.03;43.04;;
42701;Laerm;28316;49.504;8.526;2022-12-18T11:13:17;41.77;39.70;42.98;;
42701;Laerm;28316;49.504;8.526;2022-12-18T11:15:44;41.75;40.23;43.19;;
42701;Laerm;28316;49.504;8.526;2022-12-18T11:18:39;41.73;39.92;43.00;;
42701;Laerm;28316;49.504;8.526;2022-12-18T11:21:11;41.69;39.70;43.14;;
42701;Laerm;28316;49.504;8.526;2022-12-18T11:23:50;41.69;40.03;42.98;;
42701;Laerm;28316;49.504;8.526;2022-12-18T11:26:17;41.69;40.03;43.04;;
42701;Laerm;28316;49.504;8.526;2022-12-18T11:29:10;41.67;39.58;42.93;;
42701;Laerm;28316;49.504;8.526;2022-12-18T11:31:41;41.68;40.03;43.09;;
42701;Laerm;28316;49.504;8.526;2022-12-18T11:34:25;41.68;40.13;43.09;;
42701;Laerm;28316;49.504;8.526;2022-12-18T11:36:53;41.66;39.92;42.93;;
42701;Laerm;28316;49.504;8.526;2022-12-18T11:39:35;41.67;39.81;43.09;;
42701;Laerm;28316;49.504;8.526;2022-12-18T11:42:12;41.66;39.70;42.98;;
42701;Laerm;28316;49.504;8.526;2022-12-18T11:52:54;41.63;39.58;42.98;;
42701;Laerm;28316;49.504;8.526;2022-12-18T12:01:50;41.64;39.81;42.98;;
42701;Laerm;28316;49.504;8.526;2022-12-18T12:10:09;41.68;39.92;42.93;;
42701;Laerm;28316;49.504;8.526;2022-12-18T12:18:37;41.69;40.13;42.93;;
42701;Laerm;28316;49.504;8.526;2022-12-18T12:21:39;41.71;39.70;43.14;;
42701;Laerm;28316;49.504;8.526;2022-12-18T12:38:14;41.91;40.23;43.34;;
42701;Laerm;28316;49.504;8.526;2022-12-18T12:40:52;41.95;40.43;43.44;;
42701;Laerm;28316;49.504;8.526;2022-12-18T12:43:41;41.98;40.53;43.54;;
42701;Laerm;28316;49.504;8.526;2022-12-18T12:46:13;42.02;40.33;43.19;;
42701;Laerm;28316;49.504;8.526;2022-12-18T12:48:51;42.08;40.71;43.24;;
42701;Laerm;28316;49.504;8.526;2022-12-18T12:51:29;42.16;40.71;43.24;;
42701;Laerm;28316;49.504;8.526;2022-12-18T12:53:59;42.22;40.80;43.34;;
42701;Laerm;28316;49.504;8.526;2022-12-18T12:57:00;42.25;40.80;43.39;;
42701;Laerm;28316;49.504;8.526;2022-12-18T12:59:41;42.28;40.80;43.54;;
42701;Laerm;28316;49.504;8.526;2022-12-18T13:02:51;42.26;40.62;43.39;;
42701;Laerm;28316;49.504;8.526;2022-12-18T13:05:39;42.27;40.80;43.49;;
42701;Laerm;28316;49.504;8.526;2022-12-18T13:08:22;42.27;40.89;43.34;;
42701;Laerm;28316;49.504;8.526;2022-12-18T13:10:48;42.30;40.80;43.58;;
42701;Laerm;28316;49.504;8.526;2022-12-18T13:13:15;42.31;41.06;43.49;;
42701;Laerm;28316;49.504;8.526;2022-12-18T13:16:05;42.33;40.89;43.44;;
42701;Laerm;28316;49.504;8.526;2022-12-18T13:18:32;42.34;41.06;43.44;;
42701;Laerm;28316;49.504;8.526;2022-12-18T13:25:52;42.39;41.14;43.63;;
42701;Laerm;28316;49.504;8.526;2022-12-18T13:28:51;42.41;41.06;43.63;;
42701;Laerm;28316;49.504;8.526;2022-12-18T13:31:58;42.42;41.06;43.58;;
42701;Laerm;28316;49.504;8.526;2022-12-18T13:34:27;42.42;41.06;43.63;;
42701;Laerm;28316;49.504;8.526;2022-12-18T13:39:42;42.43;40.98;43.51;;
42701;Laerm;28316;49.504;8.526;2022-12-18T13:44:39;42.48;41.06;43.58;;
42701;Laerm;28316;49.504;8.526;2022-12-18T13:47:31;42.50;41.30;43.68;;
42701;Laerm;28316;49.504;8.526;2022-12-18T13:49:57;42.54;41.22;43.63;;
42701;Laerm;28316;49.504;8.526;2022-12-18T13:52:37;42.57;41.38;43.68;;
42701;Laerm;28316;49.504;8.526;2022-12-18T13:55:14;42.58;41.38;43.72;;
42701;Laerm;28316;49.504;8.526;2022-12-18T13:57:40;42.59;41.06;43.77;;
42701;Laerm;28316;49.504;8.526;2022-12-18T14:00:32;42.59;41.30;43.81;;
42701;Laerm;28316;49.504;8.526;2022-12-18T14:03:00;42.60;41.22;43.68;;
42701;Laerm;28316;49.504;8.526;2022-12-18T14:05:32;42.60;41.14;43.68;;
42701;Laerm;28316;49.504;8.526;2022-12-18T14:08:15;42.57;41.30;43.63;;
42701;Laerm;28316;49.504;8.526;2022-12-18T14:10:44;42.56;41.33;43.54;;
42701;Laerm;28316;49.504;8.526;2022-12-18T14:13:23;42.55;41.38;43.54;;
42701;Laerm;28316;49.504;8.526;2022-12-18T14:15:50;42.54;41.46;43.63;;
42701;Laerm;28316;49.504;8.526;2022-12-18T14:18:42;42.51;41.38;43.63;;
42701;Laerm;28316;49.504;8.526;2022-12-18T14:21:27;42.47;41.38;43.44;;
42701;Laerm;28316;49.504;8.526;2022-12-18T14:24:21;42.43;41.30;43.44;;
42701;Laerm;28316;49.504;8.526;2022-12-18T14:26:50;42.38;41.14;43.44;;
42701;Laerm;28316;49.504;8.526;2022-12-18T14:29:28;42.35;41.06;43.42;;
42701;Laerm;28316;49.504;8.526;2022-12-18T14:32:05;42.32;40.98;43.34;;
42701;Laerm;28316;49.504;8.526;2022-12-18T14:34:32;42.29;41.22;43.24;;
42701;Laerm;28316;49.504;8.526;2022-12-18T14:36:57;42.24;40.89;43.24;;
42701;Laerm;28316;49.504;8.526;2022-12-18T14:39:23;42.22;40.98;43.19;;
42701;Laerm;28316;49.504;8.526;2022-12-18T14:41:51;42.16;41.06;43.24;;
42701;Laerm;28316;49.504;8.526;2022-12-18T14:44:17;42.04;40.71;43.04;;
42701;Laerm;28316;49.504;8.526;2022-12-18T14:46:45;41.94;40.80;43.09;;
42701;Laerm;28316;49.504;8.526;2022-12-18T14:49:31;41.88;40.13;43.14;;
42701;Laerm;28316;49.504;8.526;2022-12-18T14:52:05;41.78;40.53;42.93;;
42701;Laerm;28316;49.504;8.526;2022-12-18T14:54:32;41.69;40.43;42.93;;
42701;Laerm;28316;49.504;8.526;2022-12-18T14:57:20;41.62;40.43;42.76;;
42701;Laerm;28316;49.504;8.526;2022-12-18T14:59:47;41.49;40.13;42.59;;
42701;Laerm;28316;49.504;8.526;2022-12-18T15:02:27;41.34;40.03;42.47;;
42701;Laerm;28316;49.504;8.526;2022-12-18T15:05:20;41.14;39.78;42.35;;
42701;Laerm;28316;49.504;8.526;2022-12-18T15:07:52;40.96;39.58;42.09;;
42701;Laerm;28316;49.504;8.526;2022-12-18T15:20:43;40.42;38.67;41.68;;
42701;Laerm;28316;49.504;8.526;2022-12-18T15:23:51;40.34;38.81;41.75;;
42701;Laerm;28316;49.504;8.526;2022-12-18T15:26:20;40.28;38.67;41.46;;
42701;Laerm;28316;49.504;8.526;2022-12-18T15:28:49;40.24;38.81;41.75;;
42701;Laerm;28316;49.504;8.526;2022-12-18T15:33:49;40.17;38.52;41.68;;
42701;Laerm;28316;49.504;8.526;2022-12-18T15:36:28;40.10;38.37;41.75;;
42701;Laerm;28316;49.504;8.526;2022-12-18T15:39:02;40.05;37.70;41.53;;
42701;Laerm;28316;49.504;8.526;2022-12-18T15:41:28;40.00;38.21;41.22;;
42701;Laerm;28316;49.504;8.526;2022-12-18T15:43:56;39.95;37.88;41.30;;
42701;Laerm;28316;49.504;8.526;2022-12-18T15:46:24;39.88;38.21;41.22;;
42701;Laerm;28316;49.504;8.526;2022-12-18T15:48:53;39.84;38.21;41.22;;
42701;Laerm;28316;49.504;8.526;2022-12-18T15:51:32;39.80;37.88;41.38;;
42701;Laerm;28316;49.504;8.526;2022-12-18T15:54:03;39.83;38.05;41.14;;
42701;Laerm;28316;49.504;8.526;2022-12-18T15:56:30;39.90;38.21;41.30;;
42701;Laerm;28316;49.504;8.526;2022-12-18T15:59:17;39.86;38.05;41.30;;